createdAt,value
2023-04-18T00:00:09.108Z,0.96
2023-04-18T00:01:09.143Z,0.97
2023-04-18T00:02:09.276Z,0.94
2023-04-18T00:03:09.420Z,0.90
2023-04-18T00:04:09.424Z,1.00
2023-04-18T00:05:09.362Z,0.95
2023-04-18T00:06:09.300Z,0.89
2023-04-18T00:07:09.357Z,0.92
2023-04-18T00:08:09.371Z,0.91
2023-04-18T00:09:09.482Z,0.81
2023-04-18T00:10:09.450Z,0.83
2023-04-18T00:11:09.468Z,0.83
2023-04-18T00:12:09.510Z,0.84
2023-04-18T00:13:09.545Z,0.85
2023-04-18T00:14:09.571Z,0.84
2023-04-18T00:15:09.635Z,0.85
2023-04-18T00:16:09.636Z,0.89
2023-04-18T00:17:09.748Z,1.05
2023-04-18T00:18:09.735Z,1.04
2023-04-18T00:19:09.736Z,1.05
2023-04-18T00:20:09.791Z,1.04
2023-04-18T00:21:09.823Z,0.94
2023-04-18T00:22:09.861Z,0.92
2023-04-18T00:23:11.536Z,0.92
2023-04-18T00:24:09.896Z,0.90
2023-04-18T00:25:09.858Z,0.94
2023-04-18T00:26:09.844Z,0.99
2023-04-18T00:27:09.843Z,0.97
2023-04-18T00:28:09.870Z,0.92
2023-04-18T00:29:09.843Z,0.94
2023-04-18T00:30:09.840Z,1.02
2023-04-18T00:31:09.850Z,1.00
2023-04-18T00:32:09.825Z,1.00
2023-04-18T00:33:09.805Z,1.03
2023-04-18T00:34:09.829Z,1.11
2023-04-18T00:35:09.780Z,1.10
2023-04-18T00:36:09.781Z,1.16
2023-04-18T00:37:09.764Z,1.13
2023-04-18T00:38:09.767Z,1.12
2023-04-18T00:39:09.770Z,1.13
2023-04-18T00:40:09.756Z,1.12
2023-04-18T00:41:09.732Z,1.14
2023-04-18T00:42:09.740Z,1.18
2023-04-18T00:43:09.746Z,1.17
2023-04-18T00:44:09.743Z,1.17
2023-04-18T00:45:09.714Z,1.15
2023-04-18T00:46:09.733Z,1.16
2023-04-18T00:47:09.718Z,1.13
2023-04-18T00:48:09.687Z,1.13
2023-04-18T00:49:09.701Z,1.13
2023-04-18T00:50:09.699Z,1.17
2023-04-18T00:51:09.704Z,1.24
2023-04-18T00:52:09.682Z,1.21
2023-04-18T00:53:09.669Z,1.29
2023-04-18T00:54:09.683Z,1.34
2023-04-18T00:55:09.657Z,1.32
2023-04-18T00:56:09.629Z,1.24
2023-04-18T00:57:09.642Z,1.34
2023-04-18T00:58:09.623Z,1.29
2023-04-18T00:59:09.629Z,1.27
2023-04-18T01:00:09.630Z,1.33
2023-04-18T01:01:09.641Z,1.42
2023-04-18T01:02:09.614Z,1.52
2023-04-18T01:03:09.687Z,1.43
2023-04-18T01:04:09.716Z,1.51
2023-04-18T01:05:09.599Z,1.48
2023-04-18T01:06:09.555Z,1.43
2023-04-18T01:07:09.551Z,1.34
2023-04-18T01:08:09.544Z,1.30
2023-04-18T01:09:09.554Z,1.35
2023-04-18T01:10:09.555Z,1.29
2023-04-18T01:11:09.547Z,1.40
2023-04-18T01:12:09.539Z,1.38
2023-04-18T01:13:09.510Z,1.63
2023-04-18T01:14:09.528Z,1.60
2023-04-18T01:15:09.566Z,1.59
2023-04-18T01:16:09.653Z,1.50
2023-04-18T01:17:09.607Z,1.32
2023-04-18T01:18:09.657Z,1.34
2023-04-18T01:19:09.664Z,1.28
2023-04-18T01:20:09.712Z,1.30
2023-04-18T01:21:09.730Z,1.37
2023-04-18T01:22:09.760Z,1.43
2023-04-18T01:23:09.801Z,1.45
2023-04-18T01:24:09.827Z,1.46
2023-04-18T01:25:09.924Z,1.42
2023-04-18T01:26:09.913Z,1.38
2023-04-18T01:27:09.928Z,1.33
2023-04-18T01:28:09.979Z,1.39
2023-04-18T01:29:10.013Z,1.43
2023-04-18T01:30:10.069Z,1.34
2023-04-18T01:31:10.152Z,1.39
2023-04-18T01:32:10.111Z,1.61
2023-04-18T01:33:10.161Z,1.70
2023-04-18T01:34:10.201Z,1.71
2023-04-18T01:35:10.242Z,1.67
2023-04-18T01:36:10.269Z,1.61
2023-04-18T01:37:10.326Z,1.58
2023-04-18T01:38:10.369Z,1.59
2023-04-18T01:39:10.392Z,1.61
2023-04-18T01:40:10.442Z,1.47
2023-04-18T01:41:10.486Z,1.58
2023-04-18T01:42:10.501Z,1.42
2023-04-18T01:43:10.576Z,1.46
2023-04-18T01:44:10.604Z,1.46
2023-04-18T01:45:10.677Z,1.45
2023-04-18T01:46:10.685Z,1.37
2023-04-18T01:47:10.741Z,1.36
2023-04-18T01:48:10.724Z,1.39
2023-04-18T01:49:10.791Z,1.40
2023-04-18T01:50:10.817Z,1.33
2023-04-18T01:51:10.866Z,1.33
2023-04-18T01:52:10.878Z,1.30
2023-04-18T01:53:10.916Z,1.28
2023-04-18T01:54:10.960Z,1.14
2023-04-18T01:55:10.972Z,1.11
2023-04-18T01:56:10.997Z,1.12
2023-04-18T01:57:11.059Z,1.11
2023-04-18T01:58:11.044Z,1.16
2023-04-18T01:59:11.105Z,1.06
2023-04-18T02:00:11.131Z,0.99
2023-04-18T02:01:11.197Z,0.99
2023-04-18T02:02:11.285Z,0.97
2023-04-18T02:03:11.334Z,1.06
2023-04-18T02:04:11.294Z,1.15
2023-04-18T02:05:11.307Z,1.27
2023-04-18T02:06:11.515Z,1.19
2023-04-18T02:07:11.336Z,1.18
2023-04-18T02:08:11.351Z,1.12
2023-04-18T02:09:11.400Z,1.24
2023-04-18T02:10:11.415Z,1.29
2023-04-18T02:11:11.486Z,1.34
2023-04-18T02:12:11.472Z,1.36
2023-04-18T02:13:11.553Z,1.41
2023-04-18T02:14:11.818Z,1.37
2023-04-18T02:15:11.644Z,1.39
2023-04-18T02:16:11.682Z,1.57
2023-04-18T02:17:11.643Z,1.58
2023-04-18T02:18:11.688Z,1.58
2023-04-18T02:19:11.692Z,1.59
2023-04-18T02:20:11.739Z,1.57
2023-04-18T02:21:11.772Z,1.46
2023-04-18T02:22:11.786Z,1.50
2023-04-18T02:23:11.841Z,1.39
2023-04-18T02:24:12.109Z,1.33
2023-04-18T02:25:11.904Z,1.43
2023-04-18T02:26:11.951Z,1.44
2023-04-18T02:27:11.989Z,1.53
2023-04-18T02:28:12.009Z,1.45
2023-04-18T02:29:12.038Z,1.48
2023-04-18T02:30:12.084Z,1.37
2023-04-18T02:31:12.088Z,1.48
2023-04-18T02:32:12.256Z,1.52
2023-04-18T02:33:12.155Z,1.55
2023-04-18T02:34:12.359Z,1.46
2023-04-18T02:35:12.230Z,1.44
2023-04-18T02:36:12.257Z,1.37
2023-04-18T02:37:12.306Z,1.45
2023-04-18T02:38:12.307Z,1.54
2023-04-18T02:39:12.373Z,1.57
2023-04-18T02:40:12.383Z,1.49
2023-04-18T02:41:12.408Z,1.50
2023-04-18T02:42:12.459Z,1.61
2023-04-18T02:43:12.477Z,1.56
2023-04-18T02:44:12.776Z,1.46
2023-04-18T02:45:12.561Z,1.60
2023-04-18T02:46:12.612Z,1.68
2023-04-18T02:47:12.613Z,1.66
2023-04-18T02:48:12.731Z,1.69
2023-04-18T02:49:12.698Z,1.70
2023-04-18T02:50:12.719Z,1.69
2023-04-18T02:51:12.776Z,1.71
2023-04-18T02:52:12.785Z,1.74
2023-04-18T02:53:12.854Z,1.67
2023-04-18T02:54:13.144Z,1.69
2023-04-18T02:55:12.897Z,1.66
2023-04-18T02:56:12.933Z,1.60
2023-04-18T02:57:12.997Z,1.69
2023-04-18T02:58:13.015Z,1.74
2023-04-18T02:59:13.035Z,1.79
2023-04-18T03:00:13.068Z,1.83
2023-04-18T03:01:13.130Z,1.83
2023-04-18T03:02:13.211Z,1.73
2023-04-18T03:03:13.225Z,1.69
2023-04-18T03:04:13.610Z,1.62
2023-04-18T03:05:13.265Z,1.66
2023-04-18T03:06:13.287Z,1.73
2023-04-18T03:07:13.307Z,1.74
2023-04-18T03:08:13.351Z,1.63
2023-04-18T03:09:13.400Z,1.49
2023-04-18T03:10:13.428Z,1.39
2023-04-18T03:11:13.464Z,1.51
2023-04-18T03:12:13.510Z,1.62
2023-04-18T03:13:13.517Z,1.46
2023-04-18T03:14:13.642Z,1.42
2023-04-18T03:15:13.569Z,1.31
2023-04-18T03:16:13.658Z,1.32
2023-04-18T03:17:13.634Z,1.41
2023-04-18T03:18:13.676Z,1.49
2023-04-18T03:19:13.709Z,1.38
2023-04-18T03:20:13.728Z,1.27
2023-04-18T03:21:13.781Z,1.38
2023-04-18T03:22:13.800Z,1.39
2023-04-18T03:23:13.839Z,1.43
2023-04-18T03:24:14.055Z,1.41
2023-04-18T03:25:13.886Z,1.43
2023-04-18T03:26:13.974Z,1.48
2023-04-18T03:27:13.968Z,1.40
2023-04-18T03:28:14.003Z,1.33
2023-04-18T03:29:14.035Z,1.33
2023-04-18T03:30:14.083Z,1.36
2023-04-18T03:31:14.092Z,1.49
2023-04-18T03:32:14.107Z,1.37
2023-04-18T03:33:14.147Z,1.51
2023-04-18T03:34:14.363Z,1.50
2023-04-18T03:35:14.241Z,1.37
2023-04-18T03:36:14.279Z,1.36
2023-04-18T03:37:14.318Z,1.43
2023-04-18T03:38:14.327Z,1.29
2023-04-18T03:39:14.354Z,1.31
2023-04-18T03:40:14.420Z,1.41
2023-04-18T03:41:14.464Z,1.30
2023-04-18T03:42:14.474Z,1.35
2023-04-18T03:43:14.522Z,1.33
2023-04-18T03:44:14.858Z,1.28
2023-04-18T03:45:14.597Z,1.32
2023-04-18T03:46:14.695Z,1.26
2023-04-18T03:47:14.662Z,1.24
2023-04-18T03:48:14.678Z,1.25
2023-04-18T03:49:14.712Z,1.35
2023-04-18T03:50:14.741Z,1.36
2023-04-18T03:51:14.900Z,1.47
2023-04-18T03:52:14.841Z,1.37
2023-04-18T03:53:14.854Z,1.38
2023-04-18T03:54:15.097Z,1.31
2023-04-18T03:55:14.941Z,1.25
2023-04-18T03:56:14.962Z,1.25
2023-04-18T03:57:15.022Z,1.26
2023-04-18T03:58:15.051Z,1.35
2023-04-18T03:59:15.065Z,1.26
2023-04-18T04:00:15.123Z,1.38
2023-04-18T04:01:15.145Z,1.39
2023-04-18T04:02:15.286Z,1.34
2023-04-18T04:03:15.326Z,1.41
2023-04-18T04:04:15.657Z,1.30
2023-04-18T04:05:15.307Z,1.35
2023-04-18T04:06:15.339Z,1.24
2023-04-18T04:07:15.401Z,1.29
2023-04-18T04:08:15.405Z,1.19
2023-04-18T04:09:15.418Z,1.21
2023-04-18T04:10:15.454Z,1.22
2023-04-18T04:11:15.492Z,1.30
2023-04-18T04:12:15.548Z,1.41
2023-04-18T04:13:15.549Z,1.53
2023-04-18T04:14:15.766Z,1.43
2023-04-18T04:15:15.612Z,1.50
2023-04-18T04:16:15.699Z,1.38
2023-04-18T04:17:15.687Z,1.29
2023-04-18T04:18:15.746Z,1.44
2023-04-18T04:19:15.764Z,1.44
2023-04-18T04:20:15.816Z,1.40
2023-04-18T04:21:15.846Z,1.37
2023-04-18T04:22:15.881Z,1.34
2023-04-18T04:23:15.917Z,1.33
2023-04-18T04:24:16.194Z,1.32
2023-04-18T04:25:15.999Z,1.21
2023-04-18T04:26:16.035Z,1.20
2023-04-18T04:27:16.056Z,1.05
2023-04-18T04:28:16.104Z,0.98
2023-04-18T04:29:16.133Z,0.98
2023-04-18T04:30:16.161Z,1.04
2023-04-18T04:31:16.330Z,1.02
2023-04-18T04:32:16.237Z,1.03
2023-04-18T04:33:16.328Z,1.07
2023-04-18T04:34:16.427Z,1.20
2023-04-18T04:35:16.353Z,1.23
2023-04-18T04:36:18.587Z,1.26
2023-04-18T04:37:16.628Z,1.23
2023-04-18T04:38:16.656Z,1.23
2023-04-18T04:39:16.695Z,1.24
2023-04-18T04:40:16.734Z,1.31
2023-04-18T04:41:16.771Z,1.29
2023-04-18T04:42:16.791Z,1.31
2023-04-18T04:43:16.839Z,1.34
2023-04-18T04:44:16.940Z,1.36
2023-04-18T04:45:16.917Z,1.48
2023-04-18T04:46:16.994Z,1.60
2023-04-18T04:47:17.004Z,1.62
2023-04-18T04:48:17.027Z,1.62
2023-04-18T04:49:17.058Z,1.59
2023-04-18T04:50:17.112Z,1.60
2023-04-18T04:51:17.149Z,1.61
2023-04-18T04:52:17.155Z,1.63
2023-04-18T04:53:17.189Z,1.75
2023-04-18T04:54:17.263Z,1.72
2023-04-18T04:55:17.292Z,1.59
2023-04-18T04:56:17.330Z,1.55
2023-04-18T04:57:17.369Z,1.48
2023-04-18T04:58:17.380Z,1.55
2023-04-18T04:59:17.382Z,1.55
2023-04-18T05:00:17.395Z,1.45
2023-04-18T05:01:17.376Z,1.38
2023-04-18T05:02:17.465Z,1.35
2023-04-18T05:03:17.473Z,1.28
2023-04-18T05:04:17.823Z,1.26
2023-04-18T05:05:17.357Z,1.25
2023-04-18T05:06:17.334Z,1.23
2023-04-18T05:07:17.316Z,1.26
2023-04-18T05:08:17.345Z,1.21
2023-04-18T05:09:17.336Z,1.26
2023-04-18T05:10:17.325Z,1.34
2023-04-18T05:11:17.348Z,1.38
2023-04-18T05:12:17.378Z,1.43
2023-04-18T05:13:17.445Z,1.47
2023-04-18T05:14:17.495Z,1.49
2023-04-18T05:15:17.463Z,1.54
2023-04-18T05:16:17.529Z,1.64
2023-04-18T05:17:17.537Z,1.75
2023-04-18T05:18:17.573Z,2.02
2023-04-18T05:19:17.601Z,2.13
2023-04-18T05:20:17.628Z,2.33
2023-04-18T05:21:17.642Z,2.43
2023-04-18T05:22:17.712Z,2.53
2023-04-18T05:23:17.734Z,2.57
2023-04-18T05:24:17.728Z,2.76
2023-04-18T05:25:17.801Z,2.87
2023-04-18T05:26:17.782Z,2.86
2023-04-18T05:27:18.295Z,2.87
2023-04-18T05:28:18.130Z,2.98
2023-04-18T05:29:17.884Z,3.25
2023-04-18T05:30:17.893Z,4.18
2023-04-18T05:31:17.947Z,4.35
2023-04-18T05:32:17.950Z,4.21
2023-04-18T05:33:18.005Z,4.23
2023-04-18T05:34:18.028Z,4.40
2023-04-18T05:35:18.015Z,4.01
2023-04-18T05:36:18.043Z,4.33
2023-04-18T05:37:18.105Z,6.03
2023-04-18T05:38:18.113Z,5.91
2023-04-18T05:39:18.099Z,6.42
2023-04-18T05:40:18.160Z,6.12
2023-04-18T05:41:18.159Z,6.22
2023-04-18T05:42:18.223Z,6.56
2023-04-18T05:43:18.186Z,6.92
2023-04-18T05:44:18.520Z,7.39
2023-04-18T05:45:18.191Z,7.53
2023-04-18T05:46:18.158Z,7.52
2023-04-18T05:47:18.168Z,7.42
2023-04-18T05:48:18.187Z,7.91
2023-04-18T05:49:18.201Z,8.04
2023-04-18T05:50:18.239Z,9.29
2023-04-18T05:51:18.230Z,8.88
2023-04-18T05:52:18.284Z,8.79
2023-04-18T05:53:18.300Z,8.57
2023-04-18T05:54:18.381Z,8.69
2023-04-18T05:55:18.641Z,8.62
2023-04-18T05:56:18.499Z,9.19
2023-04-18T05:57:18.573Z,8.91
2023-04-18T05:58:18.647Z,8.60
2023-04-18T05:59:18.690Z,8.59
2023-04-18T06:00:18.784Z,9.13
2023-04-18T06:01:18.828Z,10.07
2023-04-18T06:02:18.961Z,10.23
2023-04-18T06:03:19.289Z,9.88
2023-04-18T06:04:19.242Z,9.82
2023-04-18T06:05:19.234Z,9.32
2023-04-18T06:06:19.065Z,9.29
2023-04-18T06:07:19.105Z,9.12
2023-04-18T06:08:19.609Z,8.82
2023-04-18T06:09:19.212Z,9.00
2023-04-18T06:10:19.273Z,8.67
2023-04-18T06:11:19.317Z,7.28
2023-04-18T06:12:19.344Z,6.04
2023-04-18T06:13:19.402Z,4.92
2023-04-18T06:14:19.467Z,3.98
2023-04-18T06:15:19.490Z,4.97
2023-04-18T06:16:19.540Z,5.32
2023-04-18T06:17:19.525Z,5.82
2023-04-18T06:18:19.602Z,6.53
2023-04-18T06:19:19.656Z,5.85
2023-04-18T06:20:19.727Z,6.36
2023-04-18T06:21:19.798Z,6.81
2023-04-18T06:22:19.867Z,6.97
2023-04-18T06:23:20.143Z,7.36
2023-04-18T06:24:19.993Z,7.36
2023-04-18T06:25:20.017Z,7.64
2023-04-18T06:26:20.077Z,7.63
2023-04-18T06:27:30.507Z,7.20
2023-04-18T06:28:21.143Z,7.17
2023-04-18T06:29:20.091Z,6.82
2023-04-18T06:30:20.118Z,5.50
2023-04-18T06:31:20.118Z,5.40
2023-04-18T06:32:20.106Z,5.14
2023-04-18T06:33:20.123Z,6.08
2023-04-18T06:34:20.106Z,6.46
2023-04-18T06:35:20.048Z,14.70
2023-04-18T06:36:20.101Z,10.36
2023-04-18T06:37:20.047Z,8.70
2023-04-18T06:38:20.067Z,8.73
2023-04-18T06:39:20.109Z,8.57
2023-04-18T06:40:20.147Z,8.87
2023-04-18T06:41:20.184Z,9.48
2023-04-18T06:42:22.012Z,11.34
2023-04-18T06:43:20.250Z,9.28
2023-04-18T06:44:20.341Z,8.30
2023-04-18T06:45:20.659Z,8.39
2023-04-18T06:46:20.467Z,7.17
2023-04-18T06:47:20.412Z,7.22
2023-04-18T06:48:20.447Z,7.36
2023-04-18T06:49:23.419Z,7.92
2023-04-18T06:50:21.501Z,7.93
2023-04-18T06:51:20.466Z,7.81
2023-04-18T06:52:20.433Z,7.73
2023-04-18T06:53:20.477Z,7.94
2023-04-18T06:54:20.427Z,8.68
2023-04-18T06:55:20.433Z,9.06
2023-04-18T06:56:20.406Z,8.64
2023-04-18T06:57:20.399Z,8.35
2023-04-18T06:58:21.154Z,9.33
2023-04-18T06:59:20.407Z,10.32
2023-04-18T07:00:20.399Z,8.01
2023-04-18T07:01:20.472Z,8.05
2023-04-18T07:02:20.449Z,8.68
2023-04-18T07:03:21.011Z,9.02
2023-04-18T07:04:20.517Z,8.73
2023-04-18T07:05:20.363Z,8.45
2023-04-18T07:06:20.361Z,7.27
2023-04-18T07:07:20.355Z,6.52
2023-04-18T07:08:20.359Z,6.66
2023-04-18T07:09:20.382Z,6.20
2023-04-18T07:10:20.390Z,6.74
2023-04-18T07:11:20.424Z,6.47
2023-04-18T07:12:20.423Z,5.92
2023-04-18T07:13:20.486Z,5.00
2023-04-18T07:14:20.484Z,5.03
2023-04-18T07:15:20.546Z,5.17
2023-04-18T07:16:20.607Z,4.98
2023-04-18T07:17:20.541Z,5.31
2023-04-18T07:18:30.339Z,4.07
2023-04-18T07:19:21.643Z,4.09
2023-04-18T07:20:20.546Z,4.23
2023-04-18T07:21:20.536Z,4.58
2023-04-18T07:22:20.541Z,5.13
2023-04-18T07:23:20.551Z,5.15
2023-04-18T07:24:20.567Z,5.13
2023-04-18T07:25:20.553Z,5.84
2023-04-18T07:26:20.565Z,6.03
2023-04-18T07:27:20.521Z,5.03
2023-04-18T07:28:20.502Z,4.89
2023-04-18T07:29:20.516Z,4.89
2023-04-18T07:30:20.687Z,5.45
2023-04-18T07:31:20.599Z,5.07
2023-04-18T07:32:20.563Z,5.36
2023-04-18T07:33:20.474Z,5.54
2023-04-18T07:34:20.681Z,5.56
2023-04-18T07:35:20.656Z,5.79
2023-04-18T07:36:20.489Z,5.76
2023-04-18T07:37:20.495Z,5.16
2023-04-18T07:38:20.581Z,4.74
2023-04-18T07:39:20.564Z,4.87
2023-04-18T07:40:20.674Z,5.28
2023-04-18T07:41:20.593Z,4.67
2023-04-18T07:42:21.157Z,4.69
2023-04-18T07:43:20.957Z,4.85
2023-04-18T07:44:20.667Z,4.63
2023-04-18T07:45:20.635Z,4.68
2023-04-18T07:46:20.699Z,4.69
2023-04-18T07:47:22.296Z,5.15
2023-04-18T07:48:20.689Z,4.96
2023-04-18T07:49:21.166Z,5.04
2023-04-18T07:50:20.708Z,5.49
2023-04-18T07:51:20.763Z,5.76
2023-04-18T07:52:20.812Z,5.86
2023-04-18T07:53:20.901Z,5.96
2023-04-18T07:54:20.976Z,5.65
2023-04-18T07:55:21.033Z,5.43
2023-04-18T07:56:21.062Z,4.54
2023-04-18T07:57:21.123Z,4.88
2023-04-18T07:58:21.168Z,5.59
2023-04-18T07:59:21.251Z,5.40
2023-04-18T08:00:21.280Z,5.37
2023-04-18T08:01:21.324Z,5.64
2023-04-18T08:02:21.540Z,6.18
2023-04-18T08:03:21.499Z,6.11
2023-04-18T08:04:21.616Z,6.14
2023-04-18T08:05:21.597Z,6.34
2023-04-18T08:06:21.590Z,6.25
2023-04-18T08:07:21.645Z,6.01
2023-04-18T08:08:22.698Z,5.67
2023-04-18T08:09:21.926Z,6.00
2023-04-18T08:10:23.733Z,5.96
2023-04-18T08:11:21.863Z,5.60
2023-04-18T08:12:21.923Z,4.29
2023-04-18T08:13:21.984Z,4.31
2023-04-18T08:14:22.179Z,4.34
2023-04-18T08:15:22.133Z,4.09
2023-04-18T08:16:22.147Z,3.93
2023-04-18T08:17:22.076Z,3.64
2023-04-18T08:18:22.069Z,4.26
2023-04-18T08:19:22.202Z,4.77
2023-04-18T08:20:22.076Z,4.69
2023-04-18T08:21:22.185Z,4.45
2023-04-18T08:22:22.109Z,4.43
2023-04-18T08:23:22.155Z,4.68
2023-04-18T08:24:22.181Z,4.96
2023-04-18T08:25:22.116Z,4.97
2023-04-18T08:26:22.157Z,4.35
2023-04-18T08:27:22.148Z,4.50
2023-04-18T08:28:22.180Z,4.75
2023-04-18T08:29:22.177Z,4.74
2023-04-18T08:30:22.141Z,3.94
2023-04-18T08:31:22.145Z,3.94
2023-04-18T08:32:22.184Z,4.92
2023-04-18T08:33:22.151Z,5.20
2023-04-18T08:34:22.157Z,5.26
2023-04-18T08:35:22.155Z,4.58
2023-04-18T08:36:22.160Z,4.31
2023-04-18T08:37:22.164Z,4.41
2023-04-18T08:38:22.188Z,4.71
2023-04-18T08:39:23.679Z,4.09
2023-04-18T08:40:22.222Z,4.33
2023-04-18T08:41:22.215Z,4.60
2023-04-18T08:42:22.191Z,4.86
2023-04-18T08:43:22.242Z,5.36
2023-04-18T08:44:22.228Z,5.79
2023-04-18T08:45:22.171Z,6.10
2023-04-18T08:46:22.358Z,6.16
2023-04-18T08:47:22.251Z,6.48
2023-04-18T08:48:22.182Z,6.50
2023-04-18T08:49:22.176Z,6.94
2023-04-18T08:50:22.147Z,7.03
2023-04-18T08:51:22.164Z,7.06
2023-04-18T08:52:22.151Z,6.11
2023-04-18T08:53:22.121Z,5.99
2023-04-18T08:54:22.138Z,5.56
2023-04-18T08:55:22.236Z,4.62
2023-04-18T08:56:22.200Z,5.26
2023-04-18T08:57:22.128Z,5.59
2023-04-18T08:58:22.094Z,5.37
2023-04-18T08:59:22.074Z,5.43
2023-04-18T09:00:22.082Z,5.43
2023-04-18T09:01:22.182Z,5.50
2023-04-18T09:02:22.177Z,5.48
2023-04-18T09:03:22.060Z,5.56
2023-04-18T09:04:22.098Z,5.82
2023-04-18T09:05:22.065Z,5.52
2023-04-18T09:06:22.187Z,4.66
2023-04-18T09:07:22.063Z,3.69
2023-04-18T09:08:22.336Z,3.26
2023-04-18T09:09:22.011Z,3.31
2023-04-18T09:10:22.028Z,3.64
2023-04-18T09:11:22.260Z,3.66
2023-04-18T09:12:22.008Z,3.78
2023-04-18T09:13:23.552Z,4.28
2023-04-18T09:14:22.248Z,4.66
2023-04-18T09:15:22.233Z,4.26
2023-04-18T09:16:22.757Z,4.46
2023-04-18T09:17:22.364Z,4.48
2023-04-18T09:18:22.376Z,4.27
2023-04-18T09:19:22.454Z,4.31
2023-04-18T09:20:22.514Z,4.42
2023-04-18T09:21:22.695Z,4.43
2023-04-18T09:22:22.637Z,4.25
2023-04-18T09:23:22.712Z,4.39
2023-04-18T09:24:22.767Z,4.44
2023-04-18T09:25:23.222Z,4.40
2023-04-18T09:26:22.932Z,2.85
2023-04-18T09:27:22.945Z,1.97
2023-04-18T09:28:22.912Z,1.96
2023-04-18T09:29:22.940Z,0.89
2023-04-18T09:30:23.216Z,0.72
2023-04-18T09:31:23.251Z,0.47
2023-04-18T09:32:23.060Z,0.34
2023-04-18T09:33:23.102Z,0.34
2023-04-18T09:34:23.114Z,0.45
2023-04-18T09:35:23.112Z,0.51
2023-04-18T09:36:23.825Z,0.66
2023-04-18T09:37:23.497Z,0.80
2023-04-18T09:38:23.258Z,1.03
2023-04-18T09:39:23.248Z,1.33
2023-04-18T09:40:23.355Z,1.68
2023-04-18T09:41:23.750Z,1.84
2023-04-18T09:42:23.329Z,2.09
2023-04-18T09:43:23.326Z,2.50
2023-04-18T09:44:23.331Z,2.88
2023-04-18T09:45:23.325Z,3.34
2023-04-18T09:46:23.397Z,3.76
2023-04-18T09:47:23.372Z,4.25
2023-04-18T09:48:23.328Z,4.55
2023-04-18T09:49:24.212Z,4.72
2023-04-18T09:50:23.383Z,5.90
2023-04-18T09:51:23.739Z,5.23
2023-04-18T09:52:23.346Z,5.25
2023-04-18T09:53:23.349Z,5.99
2023-04-18T09:54:23.418Z,5.42
2023-04-18T09:55:23.485Z,5.32
2023-04-18T09:56:23.499Z,5.70
2023-04-18T09:57:23.553Z,5.60
2023-04-18T09:58:23.619Z,6.03
2023-04-18T09:59:23.653Z,6.23
2023-04-18T10:00:24.447Z,6.41
2023-04-18T10:01:23.830Z,6.68
2023-04-18T10:02:23.932Z,6.51
2023-04-18T10:03:23.979Z,5.99
2023-04-18T10:04:24.001Z,5.67
2023-04-18T10:05:24.035Z,5.84
2023-04-18T10:06:24.070Z,6.54
2023-04-18T10:07:24.126Z,6.73
2023-04-18T10:08:24.191Z,6.61
2023-04-18T10:09:24.256Z,5.97
2023-04-18T10:10:24.335Z,5.82
2023-04-18T10:11:24.411Z,5.76
2023-04-18T10:12:24.408Z,5.71
2023-04-18T10:13:24.477Z,6.12
2023-04-18T10:14:24.521Z,6.42
2023-04-18T10:15:24.585Z,6.81
2023-04-18T10:16:24.699Z,6.31
2023-04-18T10:17:24.697Z,6.12
2023-04-18T10:18:24.788Z,6.59
2023-04-18T10:19:24.776Z,7.17
2023-04-18T10:20:24.865Z,5.99
2023-04-18T10:21:25.222Z,2.04
2023-04-18T10:22:24.944Z,0.89
2023-04-18T10:23:26.497Z,0.60
2023-04-18T10:24:25.174Z,0.34
2023-04-18T10:25:25.197Z,0.36
2023-04-18T10:26:25.257Z,0.40
2023-04-18T10:27:25.257Z,0.55
2023-04-18T10:28:25.293Z,0.72
2023-04-18T10:29:25.337Z,0.85
2023-04-18T10:30:25.365Z,1.11
2023-04-18T10:31:25.467Z,1.51
2023-04-18T10:32:25.470Z,2.17
2023-04-18T10:33:30.412Z,2.42
2023-04-18T10:34:26.454Z,2.42
2023-04-18T10:35:25.436Z,2.47
2023-04-18T10:36:25.434Z,2.79
2023-04-18T10:37:25.440Z,3.68
2023-04-18T10:38:25.417Z,6.50
2023-04-18T10:39:25.408Z,8.09
2023-04-18T10:40:25.404Z,7.57
2023-04-18T10:41:25.404Z,7.56
2023-04-18T10:42:25.401Z,8.50
2023-04-18T10:43:25.399Z,8.65
2023-04-18T10:44:25.361Z,9.57
2023-04-18T10:45:25.365Z,9.59
2023-04-18T10:46:31.793Z,9.60
2023-04-18T10:47:26.420Z,9.63
2023-04-18T10:48:25.349Z,9.81
2023-04-18T10:49:27.012Z,10.10
2023-04-18T10:50:25.346Z,11.00
2023-04-18T10:51:25.359Z,11.85
2023-04-18T10:52:25.337Z,13.58
2023-04-18T10:53:25.311Z,13.34
2023-04-18T10:54:25.312Z,13.60
2023-04-18T10:55:25.292Z,13.81
2023-04-18T10:56:25.329Z,14.72
2023-04-18T10:57:25.288Z,15.52
2023-04-18T10:58:25.280Z,15.76
2023-04-18T10:59:25.287Z,14.21
2023-04-18T11:00:25.259Z,13.66
2023-04-18T11:01:25.382Z,14.02
2023-04-18T11:02:25.332Z,14.69
2023-04-18T11:03:25.342Z,15.18
2023-04-18T11:04:25.328Z,13.60
2023-04-18T11:05:25.243Z,13.29
2023-04-18T11:06:25.264Z,13.64
2023-04-18T11:07:25.224Z,11.56
2023-04-18T11:08:25.234Z,12.88
2023-04-18T11:09:25.224Z,7.51
2023-04-18T11:10:25.422Z,4.92
2023-04-18T11:11:25.770Z,2.63
2023-04-18T11:12:25.251Z,1.08
2023-04-18T11:13:25.215Z,0.48
2023-04-18T11:14:25.260Z,0.34
2023-04-18T11:15:25.390Z,0.34
2023-04-18T11:16:25.328Z,0.34
2023-04-18T11:17:25.289Z,0.34
2023-04-18T11:18:25.158Z,0.34
2023-04-18T11:19:25.220Z,0.34
2023-04-18T11:20:25.151Z,0.34
2023-04-18T11:21:25.159Z,0.34
2023-04-18T11:22:25.262Z,0.34
2023-04-18T11:23:25.183Z,0.34
2023-04-18T11:24:25.116Z,0.34
2023-04-18T11:25:25.114Z,0.34
2023-04-18T11:26:25.100Z,0.35
2023-04-18T11:27:25.117Z,0.36
2023-04-18T11:28:25.118Z,0.46
2023-04-18T11:29:25.115Z,0.52
2023-04-18T11:30:25.055Z,0.55
2023-04-18T11:31:25.138Z,0.54
2023-04-18T11:32:25.161Z,0.51
2023-04-18T11:33:25.065Z,0.50
2023-04-18T11:34:25.047Z,0.50
2023-04-18T11:35:25.231Z,0.51
2023-04-18T11:36:25.031Z,0.69
2023-04-18T11:37:25.041Z,0.79
2023-04-18T11:38:25.021Z,0.78
2023-04-18T11:39:25.034Z,0.91
2023-04-18T11:40:25.109Z,0.99
2023-04-18T11:41:25.167Z,0.93
2023-04-18T11:42:25.184Z,1.08
2023-04-18T11:43:25.240Z,0.99
2023-04-18T11:44:25.286Z,0.94
2023-04-18T11:45:25.370Z,0.85
2023-04-18T11:46:25.616Z,1.21
2023-04-18T11:47:25.510Z,2.13
2023-04-18T11:48:25.510Z,1.58
2023-04-18T11:49:25.536Z,2.12
2023-04-18T11:50:25.633Z,5.26
2023-04-18T11:51:25.576Z,12.65
2023-04-18T11:52:25.542Z,14.32
2023-04-18T11:53:25.658Z,11.92
2023-04-18T11:54:25.615Z,12.18
2023-04-18T11:55:25.785Z,13.80
2023-04-18T11:56:25.742Z,14.82
2023-04-18T11:57:25.799Z,14.85
2023-04-18T11:58:25.845Z,15.54
2023-04-18T11:59:25.900Z,17.43
2023-04-18T12:00:25.934Z,19.24
2023-04-18T12:01:26.010Z,16.03
2023-04-18T12:02:26.149Z,18.04
2023-04-18T12:03:26.227Z,18.71
2023-04-18T12:04:26.387Z,18.87
2023-04-18T12:05:26.491Z,20.07
2023-04-18T12:06:26.297Z,23.73
2023-04-18T12:07:26.201Z,25.24
2023-04-18T12:08:26.196Z,25.83
2023-04-18T12:09:26.244Z,30.59
2023-04-18T12:10:26.315Z,32.55
2023-04-18T12:11:26.266Z,33.88
2023-04-18T12:12:26.304Z,36.87
2023-04-18T12:13:26.324Z,36.85
2023-04-18T12:14:26.330Z,39.05
2023-04-18T12:15:26.376Z,41.44
2023-04-18T12:16:26.525Z,33.04
2023-04-18T12:17:26.820Z,9.51
2023-04-18T12:18:26.446Z,4.72
2023-04-18T12:19:26.589Z,2.39
2023-04-18T12:20:26.521Z,1.17
2023-04-18T12:21:26.517Z,1.16
2023-04-18T12:22:26.776Z,1.31
2023-04-18T12:23:26.561Z,1.47
2023-04-18T12:24:26.570Z,1.77
2023-04-18T12:25:27.699Z,2.09
2023-04-18T12:26:26.590Z,2.85
2023-04-18T12:27:26.650Z,3.81
2023-04-18T12:28:26.735Z,5.07
2023-04-18T12:29:26.773Z,6.74
2023-04-18T12:30:26.818Z,9.05
2023-04-18T12:31:26.869Z,13.52
2023-04-18T12:32:26.938Z,16.87
2023-04-18T12:33:27.035Z,20.36
2023-04-18T12:34:26.944Z,25.41
2023-04-18T12:35:26.967Z,29.86
2023-04-18T12:36:26.977Z,34.13
2023-04-18T12:37:27.291Z,35.82
2023-04-18T12:38:27.021Z,42.79
2023-04-18T12:39:27.042Z,44.36
2023-04-18T12:40:27.082Z,58.92
2023-04-18T12:41:27.062Z,72.70
2023-04-18T12:42:27.088Z,81.40
2023-04-18T12:43:27.120Z,85.02
2023-04-18T12:44:27.044Z,74.47
2023-04-18T12:45:27.030Z,77.28
2023-04-18T12:46:27.082Z,87.52
2023-04-18T12:47:27.077Z,99.72
2023-04-18T12:48:27.039Z,108.68
2023-04-18T12:49:27.104Z,115.68
2023-04-18T12:50:27.103Z,109.78
2023-04-18T12:51:27.140Z,117.38
2023-04-18T12:52:27.210Z,120.53
2023-04-18T12:53:27.223Z,118.79
2023-04-18T12:54:27.232Z,110.44
2023-04-18T12:55:27.593Z,109.37
2023-04-18T12:56:27.323Z,131.33
2023-04-18T12:57:27.380Z,157.37
2023-04-18T12:58:27.441Z,172.23
2023-04-18T12:59:27.491Z,118.48
2023-04-18T13:00:27.552Z,96.49
2023-04-18T13:01:27.832Z,102.16
2023-04-18T13:02:27.729Z,123.37
2023-04-18T13:03:27.818Z,142.61
2023-04-18T13:04:27.920Z,163.96
2023-04-18T13:05:29.816Z,168.62
2023-04-18T13:06:27.829Z,172.50
2023-04-18T13:07:27.817Z,177.60
2023-04-18T13:08:27.832Z,147.37
2023-04-18T13:09:27.813Z,152.56
2023-04-18T13:10:27.810Z,157.38
2023-04-18T13:11:27.848Z,150.36
2023-04-18T13:12:27.802Z,147.56
2023-04-18T13:13:27.782Z,147.66
2023-04-18T13:14:27.759Z,116.70